sensor_id;sensor_type;location;lat;lon;timestamp;pressure;altitude;pressure_sealevel;temperature;humidity
32330;BME280;18807;52.434;13.238;2023-07-22T00:01:16;75585.97;;;-142.05;100.00
32330;BME280;18807;52.434;13.238;2023-07-22T00:08:50;75579.84;;;-142.05;100.00
32330;BME280;18807;52.434;13.238;2023-07-22T00:16:27;75583.91;;;-142.05;100.00
32330;BME280;18807;52.434;13.238;2023-07-22T00:24:03;75583.91;;;-142.05;100.00
32330;BME280;18807;52.434;13.238;2023-07-22T00:31:38;75583.91;;;-142.05;100.00
32330;BME280;18807;52.434;13.238;2023-07-22T00:39:14;75579.84;;;-142.05;100.00
32330;BME280;18807;52.434;13.238;2023-07-22T00:46:53;75581.88;;;-142.05;100.00
32330;BME280;18807;52.434;13.238;2023-07-22T00:54:28;75583.91;;;-142.05;100.00
32330;BME280;18807;52.434;13.238;2023-07-22T01:02:04;75573.72;;;-142.05;100.00
32330;BME280;18807;52.434;13.238;2023-07-22T01:09:40;75561.47;;;-142.05;100.00
32330;BME280;18807;52.434;13.238;2023-07-22T01:17:16;75557.38;;;-142.05;100.00
32330;BME280;18807;52.434;13.238;2023-07-22T01:24:53;75551.28;;;-142.05;100.00
32330;BME280;18807;52.434;13.238;2023-07-22T01:32:28;75545.16;;;-142.05;100.00
32330;BME280;18807;52.434;13.238;2023-07-22T01:40:04;75545.16;;;-142.05;100.00
32330;BME280;18807;52.434;13.238;2023-07-22T01:47:44;75557.38;;;-142.05;100.00
32330;BME280;18807;52.434;13.238;2023-07-22T01:55:20;75559.44;;;-142.05;100.00
32330;BME280;18807;52.434;13.238;2023-07-22T02:02:54;75575.75;;;-142.05;100.00
32330;BME280;18807;52.434;13.238;2023-07-22T02:10:30;75571.69;;;-142.05;100.00
32330;BME280;18807;52.434;13.238;2023-07-22T02:18:04;75571.69;;;-142.05;100.00
32330;BME280;18807;52.434;13.238;2023-07-22T02:25:39;75581.88;;;-142.05;100.00
32330;BME280;18807;52.434;13.238;2023-07-22T02:33:14;75596.16;;;-142.05;100.00
32330;BME280;18807;52.434;13.238;2023-07-22T02:40:49;75594.13;;;-142.05;100.00
32330;BME280;18807;52.434;13.238;2023-07-22T02:48:23;75610.44;;;-142.05;100.00
32330;BME280;18807;52.434;13.238;2023-07-22T02:55:59;75632.91;;;-142.05;100.00
32330;BME280;18807;52.434;13.238;2023-07-22T03:03:35;75645.13;;;-142.05;100.00
32330;BME280;18807;52.434;13.238;2023-07-22T03:11:10;75645.13;;;-142.05;100.00
32330;BME280;18807;52.434;13.238;2023-07-22T03:18:45;75663.50;;;-142.05;100.00
32330;BME280;18807;52.434;13.238;2023-07-22T03:26:20;75667.59;;;-142.05;100.00
32330;BME280;18807;52.434;13.238;2023-07-22T03:33:54;75679.84;;;-142.05;100.00
32330;BME280;18807;52.434;13.238;2023-07-22T03:41:30;75692.06;;;-142.05;100.00
32330;BME280;18807;52.434;13.238;2023-07-22T03:49:04;75700.25;;;-142.05;100.00
32330;BME280;18807;52.434;13.238;2023-07-22T03:56:41;75700.25;;;-142.05;100.00
32330;BME280;18807;52.434;13.238;2023-07-22T04:04:15;75710.44;;;-142.05;100.00
32330;BME280;18807;52.434;13.238;2023-07-22T04:11:50;75722.69;;;-142.05;100.00
32330;BME280;18807;52.434;13.238;2023-07-22T04:19:24;75720.66;;;-142.05;100.00
32330;BME280;18807;52.434;13.238;2023-07-22T04:27:03;75716.56;;;-142.05;100.00
32330;BME280;18807;52.434;13.238;2023-07-22T04:34:37;75712.47;;;-142.05;100.00
32330;BME280;18807;52.434;13.238;2023-07-22T04:42:13;75706.34;;;-142.05;100.00
32330;BME280;18807;52.434;13.238;2023-07-22T04:49:47;75700.25;;;-142.05;100.00
32330;BME280;18807;52.434;13.238;2023-07-22T04:57:23;75700.25;;;-142.05;100.00
32330;BME280;18807;52.434;13.238;2023-07-22T05:04:57;75706.34;;;-142.05;100.00
32330;BME280;18807;52.434;13.238;2023-07-22T05:12:33;75698.19;;;-142.05;100.00
32330;BME280;18807;52.434;13.238;2023-07-22T05:20:08;75696.16;;;-142.05;100.00
32330;BME280;18807;52.434;13.238;2023-07-22T05:27:45;75704.31;;;-142.05;100.00
32330;BME280;18807;52.434;13.238;2023-07-22T05:35:19;75692.06;;;-142.05;100.00
32330;BME280;18807;52.434;13.238;2023-07-22T05:42:55;75692.06;;;-142.05;100.00
32330;BME280;18807;52.434;13.238;2023-07-22T05:50:29;75681.88;;;-142.05;100.00
32330;BME280;18807;52.434;13.238;2023-07-22T05:58:04;75669.63;;;-142.05;100.00
32330;BME280;18807;52.434;13.238;2023-07-22T06:05:39;75665.53;;;-142.05;100.00
32330;BME280;18807;52.434;13.238;2023-07-22T06:13:14;75667.59;;;-142.05;100.00
32330;BME280;18807;52.434;13.238;2023-07-22T06:20:48;75655.34;;;-142.05;100.00
32330;BME280;18807;52.434;13.238;2023-07-22T06:28:23;75653.31;;;-142.05;100.00
32330;BME280;18807;52.434;13.238;2023-07-22T06:35:58;75634.94;;;-142.05;100.00
32330;BME280;18807;52.434;13.238;2023-07-22T06:43:35;75614.53;;;-142.05;100.00
32330;BME280;18807;52.434;13.238;2023-07-22T06:51:08;75616.56;;;-142.05;100.00
32330;BME280;18807;52.434;13.238;2023-07-22T06:58:44;75600.25;;;-142.05;100.00
32330;BME280;18807;52.434;13.238;2023-07-22T07:06:18;75583.91;;;-142.05;100.00
32330;BME280;18807;52.434;13.238;2023-07-22T07:13:54;75557.38;;;-142.05;92.94
32330;BME280;18807;52.434;13.238;2023-07-22T07:21:28;75547.19;;;-142.05;87.88
32330;BME280;18807;52.434;13.238;2023-07-22T07:29:03;75541.06;;;-142.05;81.56
32330;BME280;18807;52.434;13.238;2023-07-22T07:36:37;75530.88;;;-142.05;78.82
32330;BME280;18807;52.434;13.238;2023-07-22T07:44:13;75508.41;;;-142.05;75.93
32330;BME280;18807;52.434;13.238;2023-07-22T07:51:47;75510.47;;;-142.05;75.34
32330;BME280;18807;52.434;13.238;2023-07-22T07:59:22;75502.28;;;-142.05;74.04
32330;BME280;18807;52.434;13.238;2023-07-22T08:06:56;75473.72;;;-142.05;72.14
32330;BME280;18807;52.434;13.238;2023-07-22T08:14:32;75461.47;;;-142.05;72.59
32330;BME280;18807;52.434;13.238;2023-07-22T08:22:06;75422.72;;;-142.05;71.32
32330;BME280;18807;52.434;13.238;2023-07-22T08:29:41;75441.06;;;-142.05;66.21
32330;BME280;18807;52.434;13.238;2023-07-22T08:37:15;75408.44;;;-142.05;65.18
32330;BME280;18807;52.434;13.238;2023-07-22T08:44:54;75394.16;;;-142.05;62.68
32330;BME280;18807;52.434;13.238;2023-07-22T08:52:30;75363.53;;;-142.05;61.65
32330;BME280;18807;52.434;13.238;2023-07-22T09:00:08;75357.41;;;-142.05;61.64
32330;BME280;18807;52.434;13.238;2023-07-22T09:07:46;75363.53;;;-142.05;61.79
32330;BME280;18807;52.434;13.238;2023-07-22T09:15:24;75320.69;;;-142.05;60.37
32330;BME280;18807;52.434;13.238;2023-07-22T09:22:59;75300.28;;;-142.05;56.62
32330;BME280;18807;52.434;13.238;2023-07-22T09:30:47;75241.09;;;-142.05;59.23
32330;BME280;18807;52.434;13.238;2023-07-22T09:38:25;75210.50;;;-142.05;55.13
32330;BME280;18807;52.434;13.238;2023-07-22T09:46:07;75167.66;;;-142.05;52.73
32330;BME280;18807;52.434;13.238;2023-07-22T09:54:03;75139.09;;;-142.05;52.68
32330;BME280;18807;52.434;13.238;2023-07-22T10:01:40;75149.28;;;-142.05;52.22
32330;BME280;18807;52.434;13.238;2023-07-22T10:09:15;75167.66;;;-142.05;51.78
32330;BME280;18807;52.434;13.238;2023-07-22T10:16:51;75104.41;;;-142.05;52.32
32330;BME280;18807;52.434;13.238;2023-07-22T10:24:27;75120.72;;;-142.05;48.05
32330;BME280;18807;52.434;13.238;2023-07-22T10:32:04;75126.84;;;-142.05;46.90
32330;BME280;18807;52.434;13.238;2023-07-22T10:39:38;75112.56;;;-142.05;47.71
32330;BME280;18807;52.434;13.238;2023-07-22T10:47:31;75086.03;;;-142.05;47.01
32330;BME280;18807;52.434;13.238;2023-07-22T10:55:14;75090.13;;;-142.05;49.40
32330;BME280;18807;52.434;13.238;2023-07-22T11:03:10;75073.78;;;-142.05;50.06
32330;BME280;18807;52.434;13.238;2023-07-22T11:10:52;75039.09;;;-142.05;47.50
32330;BME280;18807;52.434;13.238;2023-07-22T11:18:39;75018.72;;;-142.05;46.35
32330;BME280;18807;52.434;13.238;2023-07-22T11:26:15;75008.50;;;-142.05;46.44
32330;BME280;18807;52.434;13.238;2023-07-22T11:33:51;75024.81;;;-142.05;45.59
32330;BME280;18807;52.434;13.238;2023-07-22T11:41:26;74992.19;;;-142.05;44.82
32330;BME280;18807;52.434;13.238;2023-07-22T11:49:02;75010.53;;;-142.05;43.92
32330;BME280;18807;52.434;13.238;2023-07-22T11:56:39;75000.34;;;-142.05;43.90
32330;BME280;18807;52.434;13.238;2023-07-22T12:04:14;74996.25;;;-142.05;44.83
32330;BME280;18807;52.434;13.238;2023-07-22T12:11:55;74979.94;;;-142.05;43.89
32330;BME280;18807;52.434;13.238;2023-07-22T12:19:30;74961.59;;;-142.05;44.23
32330;BME280;18807;52.434;13.238;2023-07-22T12:27:05;74935.06;;;-142.05;44.29
32330;BME280;18807;52.434;13.238;2023-07-22T12:34:41;74922.81;;;-142.05;42.44
32330;BME280;18807;52.434;13.238;2023-07-22T12:42:15;74902.41;;;-142.05;42.53
32330;BME280;18807;52.434;13.238;2023-07-22T12:49:50;74892.22;;;-142.05;43.71
32330;BME280;18807;52.434;13.238;2023-07-22T12:57:24;74902.41;;;-142.05;43.31
32330;BME280;18807;52.434;13.238;2023-07-22T13:04:59;74896.28;;;-142.05;44.31
32330;BME280;18807;52.434;13.238;2023-07-22T13:12:34;74898.34;;;-142.05;44.48
32330;BME280;18807;52.434;13.238;2023-07-22T13:20:11;74873.84;;;-142.05;43.29
32330;BME280;18807;52.434;13.238;2023-07-22T13:27:46;74849.38;;;-142.05;42.03
32330;BME280;18807;52.434;13.238;2023-07-22T13:35:21;74853.44;;;-142.05;44.00
32330;BME280;18807;52.434;13.238;2023-07-22T13:42:55;74841.22;;;-142.05;42.74
32330;BME280;18807;52.434;13.238;2023-07-22T13:50:31;74790.19;;;-142.05;42.78
32330;BME280;18807;52.434;13.238;2023-07-22T13:58:08;74790.19;;;-142.05;42.07
32330;BME280;18807;52.434;13.238;2023-07-22T14:05:43;74790.19;;;-142.05;41.85
32330;BME280;18807;52.434;13.238;2023-07-22T14:13:17;74775.91;;;-142.05;41.31
32330;BME280;18807;52.434;13.238;2023-07-22T14:20:53;74796.31;;;-142.05;41.83
32330;BME280;18807;52.434;13.238;2023-07-22T14:28:44;74780.00;;;-142.05;41.34
32330;BME280;18807;52.434;13.238;2023-07-22T14:36:19;74775.91;;;-142.05;42.38
32330;BME280;18807;52.434;13.238;2023-07-22T14:43:54;74788.16;;;-142.05;41.69
32330;BME280;18807;52.434;13.238;2023-07-22T14:51:29;74794.28;;;-142.05;42.86
32330;BME280;18807;52.434;13.238;2023-07-22T14:59:03;74796.31;;;-142.05;41.65
32330;BME280;18807;52.434;13.238;2023-07-22T15:06:39;74802.44;;;-142.05;42.70
32330;BME280;18807;52.434;13.238;2023-07-22T15:14:13;74822.84;;;-142.05;43.29
32330;BME280;18807;52.434;13.238;2023-07-22T15:21:48;74835.09;;;-142.05;42.10
32330;BME280;18807;52.434;13.238;2023-07-22T15:29:22;74771.84;;;-142.05;44.19
32330;BME280;18807;52.434;13.238;2023-07-22T15:36:58;74675.94;;;-142.05;41.62
32330;BME280;18807;52.434;13.238;2023-07-22T15:44:32;74682.06;;;-142.05;41.45
32330;BME280;18807;52.434;13.238;2023-07-22T15:52:09;74631.06;;;-142.05;40.35
32330;BME280;18807;52.434;13.238;2023-07-22T15:59:43;74584.16;;;-142.05;40.16
32330;BME280;18807;52.434;13.238;2023-07-22T16:07:18;74584.16;;;-142.05;39.60
32330;BME280;18807;52.434;13.238;2023-07-22T16:14:52;74637.19;;;-142.05;38.97
32330;BME280;18807;52.434;13.238;2023-07-22T16:22:27;74657.59;;;-142.05;39.44
32330;BME280;18807;52.434;13.238;2023-07-22T16:30:06;74680.03;;;-142.05;39.66
32330;BME280;18807;52.434;13.238;2023-07-22T16:37:42;74704.50;;;-142.05;40.22
32330;BME280;18807;52.434;13.238;2023-07-22T16:45:16;74720.84;;;-142.05;41.06
32330;BME280;18807;52.434;13.238;2023-07-22T16:52:52;74733.06;;;-142.05;41.71
32330;BME280;18807;52.434;13.238;2023-07-22T17:00:26;74724.91;;;-142.05;42.13
32330;BME280;18807;52.434;13.238;2023-07-22T17:08:03;74714.72;;;-142.05;41.96
32330;BME280;18807;52.434;13.238;2023-07-22T17:15:38;74706.56;;;-142.05;41.62
32330;BME280;18807;52.434;13.238;2023-07-22T17:23:14;74698.41;;;-142.05;41.98
32330;BME280;18807;52.434;13.238;2023-07-22T17:30:48;74678.00;;;-142.05;41.43
32330;BME280;18807;52.434;13.238;2023-07-22T17:38:24;74680.03;;;-142.05;41.19
32330;BME280;18807;52.434;13.238;2023-07-22T17:45:58;74680.03;;;-142.05;41.45
32330;BME280;18807;52.434;13.238;2023-07-22T17:53:34;74690.22;;;-142.05;41.60
32330;BME280;18807;52.434;13.238;2023-07-22T18:01:09;74706.56;;;-142.05;42.56
32330;BME280;18807;52.434;13.238;2023-07-22T18:08:44;74714.72;;;-142.05;42.59
32330;BME280;18807;52.434;13.238;2023-07-22T18:16:19;74737.16;;;-142.05;45.28
32330;BME280;18807;52.434;13.238;2023-07-22T18:23:54;74763.69;;;-142.05;48.10
32330;BME280;18807;52.434;13.238;2023-07-22T18:31:28;74808.56;;;-142.05;50.09
32330;BME280;18807;52.434;13.238;2023-07-22T18:39:04;74820.81;;;-142.05;52.12
32330;BME280;18807;52.434;13.238;2023-07-22T18:46:38;74835.09;;;-142.05;54.60
32330;BME280;18807;52.434;13.238;2023-07-22T18:54:14;74855.50;;;-142.05;53.54
32330;BME280;18807;52.434;13.238;2023-07-22T19:01:49;74882.00;;;-142.05;55.13
32330;BME280;18807;52.434;13.238;2023-07-22T19:09:24;74910.56;;;-142.05;57.04
32330;BME280;18807;52.434;13.238;2023-07-22T19:17:03;74949.34;;;-142.05;58.63
32330;BME280;18807;52.434;13.238;2023-07-22T19:24:38;74986.06;;;-142.05;60.37
32330;BME280;18807;52.434;13.238;2023-07-22T19:32:12;75014.63;;;-142.05;61.29
32330;BME280;18807;52.434;13.238;2023-07-22T19:39:48;75047.28;;;-142.05;62.80
32330;BME280;18807;52.434;13.238;2023-07-22T19:47:21;75067.69;;;-142.05;65.10
32330;BME280;18807;52.434;13.238;2023-07-22T19:54:57;75094.19;;;-142.05;65.78
32330;BME280;18807;52.434;13.238;2023-07-22T20:02:31;75108.47;;;-142.05;67.49
32330;BME280;18807;52.434;13.238;2023-07-22T20:10:08;75130.94;;;-142.05;67.67
32330;BME280;18807;52.434;13.238;2023-07-22T20:17:42;75130.94;;;-142.05;68.07
32330;BME280;18807;52.434;13.238;2023-07-22T20:25:17;75143.16;;;-142.05;69.57
32330;BME280;18807;52.434;13.238;2023-07-22T20:32:51;75153.38;;;-142.05;70.13
32330;BME280;18807;52.434;13.238;2023-07-22T20:40:27;75169.69;;;-142.05;70.80
32330;BME280;18807;52.434;13.238;2023-07-22T20:48:01;75169.69;;;-142.05;72.25
32330;BME280;18807;52.434;13.238;2023-07-22T20:55:36;75173.78;;;-142.05;72.58
32330;BME280;18807;52.434;13.238;2023-07-22T21:03:11;75179.91;;;-142.05;73.05
32330;BME280;18807;52.434;13.238;2023-07-22T21:11:06;75200.31;;;-142.05;72.55
32330;BME280;18807;52.434;13.238;2023-07-22T21:18:40;75202.34;;;-142.05;71.72
32330;BME280;18807;52.434;13.238;2023-07-22T21:26:15;75200.31;;;-142.05;71.32
32330;BME280;18807;52.434;13.238;2023-07-22T21:33:49;75200.31;;;-142.05;70.30
32330;BME280;18807;52.434;13.238;2023-07-22T21:41:28;75200.31;;;-142.05;68.59
32330;BME280;18807;52.434;13.238;2023-07-22T21:49:02;75208.47;;;-142.05;66.04
32330;BME280;18807;52.434;13.238;2023-07-22T21:56:37;75210.50;;;-142.05;64.84
32330;BME280;18807;52.434;13.238;2023-07-22T22:04:11;75216.63;;;-142.05;64.57
32330;BME280;18807;52.434;13.238;2023-07-22T22:11:47;75216.63;;;-142.05;64.20
32330;BME280;18807;52.434;13.238;2023-07-22T22:19:21;75220.72;;;-142.05;64.05
32330;BME280;18807;52.434;13.238;2023-07-22T22:26:56;75214.59;;;-142.05;64.31
32330;BME280;18807;52.434;13.238;2023-07-22T22:34:30;75214.59;;;-142.05;62.31
32330;BME280;18807;52.434;13.238;2023-07-22T22:42:23;75216.63;;;-142.05;61.55
32330;BME280;18807;52.434;13.238;2023-07-22T22:49:58;75208.47;;;-142.05;61.89
32330;BME280;18807;52.434;13.238;2023-07-22T22:57:33;75208.47;;;-142.05;61.13
32330;BME280;18807;52.434;13.238;2023-07-22T23:05:08;75206.41;;;-142.05;60.63
32330;BME280;18807;52.434;13.238;2023-07-22T23:12:43;75206.41;;;-142.05;60.41
32330;BME280;18807;52.434;13.238;2023-07-22T23:20:17;75200.31;;;-142.05;61.04
32330;BME280;18807;52.434;13.238;2023-07-22T23:27:52;75200.31;;;-142.05;61.60
32330;BME280;18807;52.434;13.238;2023-07-22T23:35:26;75192.13;;;-142.05;62.21
32330;BME280;18807;52.434;13.238;2023-07-22T23:43:02;75198.25;;;-142.05;61.84
32330;BME280;18807;52.434;13.238;2023-07-22T23:50:35;75192.13;;;-142.05;63.66
32330;BME280;18807;52.434;13.238;2023-07-22T23:58:11;75194.19;;;-142.05;64.81
